Time;durP1;ratioP1;P1;durP2;ratioP2;P2;SDS_P1;SDS_P2;PMS_P1;PMS_P2;Temp;Humidity;BMP_temperature;BMP_pressure;BME280_temperature;BME280_humidity;BME280_pressure;Samples;Min_cycle;Max_cycle;Signal;HPM_P1;HPM_P2
2022/04/03 00:00:28;;;;;;;21.42;14.73;;;;;;;13.38;84.23;99580.50;4976936;28;20023;-85
2022/04/03 00:02:53;;;;;;;20.30;12.57;;;;;;;13.11;83.11;99548.41;4976452;28;20023;-86
2022/04/03 00:05:19;;;;;;;20.00;12.98;;;;;;;13.10;83.52;99555.66;4977270;28;20434;-86
2022/04/03 00:07:48;;;;;;;22.58;14.20;;;;;;;13.35;83.27;99597.88;4976762;28;20027;-85
2022/04/03 00:10:17;;;;;;;20.13;12.23;;;;;;;13.24;83.41;99584.69;4959402;28;20190;-86
2022/04/03 00:12:46;;;;;;;23.40;10.65;;;;;;;12.86;83.11;99531.31;4976637;28;20492;-85
2022/04/03 00:15:14;;;;;;;16.30;11.25;;;;;;;13.26;83.38;99588.06;4976462;28;20054;-86
2022/04/03 00:17:41;;;;;;;15.35;10.27;;;;;;;13.17;83.78;99575.59;4958765;28;20489;-87
2022/04/03 00:20:08;;;;;;;16.98;10.48;;;;;;;13.14;83.26;99583.16;4976733;28;20034;-86
2022/04/03 00:22:34;;;;;;;16.48;8.25;;;;;;;13.08;83.39;99569.34;4976795;28;20128;-85
2022/04/03 00:24:59;;;;;;;14.23;8.35;;;;;;;13.05;83.16;99593.94;4977741;28;20027;-86
2022/04/03 00:27:25;;;;;;;11.73;7.85;;;;;;;13.05;83.17;99590.38;4976410;28;20447;-85
2022/04/03 00:29:50;;;;;;;11.23;8.07;;;;;;;12.82;83.55;99570.41;4976299;28;20023;-87
2022/04/03 00:32:16;;;;;;;11.70;7.50;;;;;;;12.69;83.28;99552.00;4976012;28;20516;-85
2022/04/03 00:34:41;;;;;;;11.55;8.05;;;;;;;12.96;82.91;99594.91;4976440;28;20034;-86
2022/04/03 00:37:07;;;;;;;14.57;7.25;;;;;;;12.81;82.87;99564.16;4976116;28;20035;-84
2022/04/03 00:39:32;;;;;;;16.40;8.20;;;;;;;13.09;83.00;99616.03;4958735;28;20041;-85
2022/04/03 00:41:58;;;;;;;11.48;7.35;;;;;;;13.04;83.33;99616.53;4976267;28;20031;-86
2022/04/03 00:44:24;;;;;;;11.57;8.30;;;;;;;13.03;82.62;99622.06;4975772;28;20127;-85
2022/04/03 00:46:51;;;;;;;11.30;8.32;;;;;;;12.89;82.04;99601.13;4975942;28;20038;-85
2022/04/03 00:49:16;;;;;;;14.85;9.98;;;;;;;13.04;81.92;99608.44;4976159;28;20026;-85
2022/04/03 00:51:42;;;;;;;19.20;12.52;;;;;;;13.08;81.93;99609.81;4979115;28;20026;-83
2022/04/03 00:54:08;;;;;;;25.23;14.73;;;;;;;12.97;81.78;99607.38;4991826;28;20026;-86
2022/04/03 00:56:34;;;;;;;28.40;20.58;;;;;;;12.98;81.56;99586.66;4976391;28;20030;-85
2022/04/03 00:59:01;;;;;;;29.83;18.67;;;;;;;13.21;81.22;99608.50;4976646;28;20031;-86
2022/04/03 01:01:27;;;;;;;29.05;18.70;;;;;;;13.23;81.79;99603.75;4978635;28;20053;-85
2022/04/03 01:03:52;;;;;;;28.55;16.90;;;;;;;13.17;82.49;99594.47;4976674;28;20489;-85
2022/04/03 01:06:18;;;;;;;21.50;16.17;;;;;;;13.16;82.34;99594.63;4976269;28;20050;-86
2022/04/03 01:08:44;;;;;;;22.58;15.48;;;;;;;13.03;82.47;99570.78;4977459;28;20037;-86
2022/04/03 01:11:12;;;;;;;22.83;14.20;;;;;;;13.06;82.64;99589.34;4979458;28;20031;-84
2022/04/03 01:13:48;;;;;;;25.75;14.15;;;;;;;13.07;81.92;99591.03;4986934;28;20042;-85
2022/04/03 01:16:13;;;;;;;20.10;12.80;;;;;;;13.03;81.82;99579.72;4983829;28;20062;-86
2022/04/03 01:18:39;;;;;;;20.67;12.13;;;;;;;13.09;80.90;99576.41;4984166;28;20481;-86
2022/04/03 01:21:05;;;;;;;14.90;10.80;;;;;;;13.01;80.22;99576.38;4977489;28;20476;-88
2022/04/03 01:23:30;;;;;;;14.45;9.52;;;;;;;12.95;80.36;99568.09;4976031;28;20077;-90
2022/04/03 01:25:56;;;;;;;10.07;6.85;;;;;;;12.69;80.25;99533.09;4977439;28;20485;-90
2022/04/03 01:28:23;;;;;;;7.97;4.53;;;;;;;12.46;79.26;99499.69;4981355;28;20101;-90
2022/04/03 01:30:48;;;;;;;4.80;3.88;;;;;;;12.49;77.49;99521.78;4966400;28;20057;-92
2022/04/03 01:33:14;;;;;;;9.75;4.32;;;;;;;12.65;77.82;99553.34;4966867;28;20039;-92
2022/04/03 01:35:39;;;;;;;10.35;3.42;;;;;;;12.60;76.38;99571.84;4966142;28;20428;-93
2022/04/03 01:38:05;;;;;;;5.70;3.35;;;;;;;12.23;76.29;99520.16;4978859;28;20026;-92
2022/04/03 01:40:34;;;;;;;3.35;2.83;;;;;;;11.70;76.07;99437.75;4960945;28;20034;-91
2022/04/03 01:43:00;;;;;;;6.32;3.20;;;;;;;12.52;76.38;99552.97;4962398;28;20022;-90
2022/04/03 01:45:25;;;;;;;4.93;2.58;;;;;;;12.66;75.72;99565.81;4980700;28;20092;-90
2022/04/03 01:47:51;;;;;;;4.50;2.33;;;;;;;12.53;74.78;99544.72;4958199;28;20038;-88
2022/04/03 01:50:17;;;;;;;4.03;2.35;;;;;;;12.30;75.23;99500.47;4975639;28;20026;-88
2022/04/03 01:52:42;;;;;;;4.75;2.65;;;;;;;12.29;74.81;99471.81;4958128;28;20033;-88
2022/04/03 01:55:08;;;;;;;3.85;2.72;;;;;;;12.71;74.44;99541.91;4974827;28;20041;-87
2022/04/03 01:57:34;;;;;;;4.47;2.60;;;;;;;12.49;74.30;99499.34;4975579;28;20058;-88
2022/04/03 01:59:59;;;;;;;5.32;3.13;;;;;;;12.76;74.11;99555.72;4977182;28;20030;-88
2022/04/03 02:02:25;;;;;;;4.88;2.60;;;;;;;12.70;74.21;99547.44;4976486;28;20085;-87
2022/04/03 02:04:50;;;;;;;3.42;2.30;;;;;;;12.40;74.05;99500.34;4975405;28;20034;-88
2022/04/03 02:07:16;;;;;;;4.72;2.55;;;;;;;12.72;73.53;99567.03;4977849;28;20023;-85
2022/04/03 02:09:43;;;;;;;7.03;3.47;;;;;;;12.34;73.23;99495.59;4978695;28;20039;-87
2022/04/03 02:12:09;;;;;;;5.07;3.10;;;;;;;12.50;73.19;99510.00;4992689;28;20051;-86
2022/04/03 02:14:35;;;;;;;4.57;2.90;;;;;;;12.78;73.49;99540.22;4980655;28;20034;-87
2022/04/03 02:17:01;;;;;;;6.40;3.22;;;;;;;12.53;73.87;99520.44;4957825;28;20413;-87
2022/04/03 02:19:27;;;;;;;3.60;2.78;;;;;;;12.32;73.88;99486.84;4974532;28;20037;-85
2022/04/03 02:21:52;;;;;;;4.78;2.70;;;;;;;12.68;73.87;99549.47;4975389;28;20218;-87
2022/04/03 02:24:18;;;;;;;8.07;2.85;;;;;;;12.55;73.99;99531.06;4974566;28;20498;-87
2022/04/03 02:26:44;;;;;;;6.43;3.65;;;;;;;12.64;73.74;99551.66;4974361;28;20042;-86
2022/04/03 02:29:09;;;;;;;6.28;3.17;;;;;;;12.53;74.08;99533.09;4974842;28;20109;-86
2022/04/03 02:31:35;;;;;;;3.33;2.88;;;;;;;12.62;73.91;99542.88;4974780;28;20042;-85
2022/04/03 02:34:04;;;;;;;6.20;2.83;;;;;;;12.29;73.94;99503.34;4975069;28;20027;-86
2022/04/03 02:36:30;;;;;;;4.90;3.17;;;;;;;12.48;74.30;99538.09;4979676;28;20035;-87
2022/04/03 02:38:55;;;;;;;5.72;3.08;;;;;;;12.67;74.38;99561.25;4985533;28;20082;-86
2022/04/03 02:41:21;;;;;;;8.45;3.45;;;;;;;12.62;74.33;99564.47;4986139;28;20027;-86
2022/04/03 02:43:46;;;;;;;8.40;4.07;;;;;;;12.61;73.91;99557.38;4971202;28;20033;-86
2022/04/03 02:46:12;;;;;;;4.82;3.00;;;;;;;12.52;75.01;99548.41;4958198;28;20158;-86
2022/04/03 02:48:38;;;;;;;6.05;2.65;;;;;;;12.43;75.00;99543.16;4975181;28;20073;-85
2022/04/03 02:51:03;;;;;;;4.95;2.70;;;;;;;12.56;74.10;99562.41;4963536;28;20516;-86
2022/04/03 02:53:28;;;;;;;11.50;3.03;;;;;;;12.22;73.70;99496.91;4988122;28;20031;-86
2022/04/03 02:55:54;;;;;;;3.95;2.83;;;;;;;12.62;73.50;99561.75;4983295;28;20118;-86
2022/04/03 02:58:20;;;;;;;5.60;2.90;;;;;;;12.61;74.07;99559.22;4974026;28;20081;-86
2022/04/03 03:00:46;;;;;;;5.45;3.03;;;;;;;12.46;74.51;99548.22;4974182;28;20492;-86
2022/04/03 03:03:12;;;;;;;4.07;2.40;;;;;;;12.11;75.37;99526.84;4973981;28;20023;-86
2022/04/03 03:05:42;;;;;;;3.25;2.42;;;;;;;12.47;74.96;99569.66;4973868;28;20065;-86
2022/04/03 03:08:08;;;;;;;3.80;2.28;;;;;;;12.49;74.11;99569.47;4973688;28;20090;-87
2022/04/03 03:10:33;;;;;;;4.95;2.88;;;;;;;12.54;74.07;99573.34;4973904;28;20054;-86
2022/04/03 03:12:59;;;;;;;4.03;2.53;;;;;;;12.40;73.98;99538.09;4973868;28;20027;-85
2022/04/03 03:15:25;;;;;;;7.60;2.83;;;;;;;12.54;73.58;99567.97;4974605;28;20039;-86
2022/04/03 03:17:50;;;;;;;4.93;2.83;;;;;;;12.18;74.06;99515.25;4977514;28;20027;-85
2022/04/03 03:20:16;;;;;;;4.93;2.67;;;;;;;12.53;73.95;99573.53;4977468;28;20026;-86
2022/04/03 03:22:42;;;;;;;2.95;2.50;;;;;;;12.50;73.53;99577.41;4977690;28;20035;-86
2022/04/03 03:25:08;;;;;;;6.18;3.63;;;;;;;12.19;72.81;99524.19;4977529;28;20436;-86
2022/04/03 03:27:35;;;;;;;7.35;3.70;;;;;;;12.49;72.10;99591.03;4977389;28;20062;-86
2022/04/03 03:30:01;;;;;;;6.85;3.95;;;;;;;12.49;72.54;99596.44;4960462;28;20393;-85
2022/04/03 03:32:26;;;;;;;11.80;5.15;;;;;;;12.50;73.09;99598.13;4977382;28;20042;-86
2022/04/03 03:34:54;;;;;;;6.50;4.75;;;;;;;12.08;72.09;99560.34;4979765;28;20027;-86
2022/04/03 03:37:20;;;;;;;10.40;5.55;;;;;;;12.27;72.29;99602.38;4980466;28;20037;-85
2022/04/03 03:39:45;;;;;;;9.73;5.60;;;;;;;12.15;72.64;99595.59;4977515;28;20521;-86
2022/04/03 03:42:11;;;;;;;12.13;6.53;;;;;;;12.10;72.11;99579.06;4977872;28;20073;-86
2022/04/03 03:44:37;;;;;;;13.32;6.55;;;;;;;11.95;72.13;99557.25;4960065;28;20085;-85
2022/04/03 03:47:02;;;;;;;12.13;7.35;;;;;;;12.25;72.71;99599.88;4977258;28;20027;-86
2022/04/03 03:49:28;;;;;;;14.40;8.85;;;;;;;12.32;72.28;99608.16;4977555;28;20030;-85
2022/04/03 03:51:54;;;;;;;20.40;10.30;;;;;;;12.25;71.96;99594.47;4977128;28;20027;-86
2022/04/03 03:54:19;;;;;;;15.13;11.02;;;;;;;12.07;72.37;99569.44;4977293;28;20030;-85
2022/04/03 03:56:44;;;;;;;18.67;12.82;;;;;;;11.99;72.58;99547.81;4977015;28;20035;-85
2022/04/03 03:59:11;;;;;;;22.00;13.60;;;;;;;12.39;72.88;99603.78;4977191;28;20049;-84
2022/04/03 04:01:36;;;;;;;22.63;12.43;;;;;;;12.40;72.49;99608.19;4960245;28;20097;-84
2022/04/03 04:04:02;;;;;;;19.40;12.07;;;;;;;12.38;72.57;99600.25;4965816;28;20038;-85
2022/04/03 04:06:28;;;;;;;20.58;12.02;;;;;;;12.41;71.46;99612.59;4970268;28;20035;-84
2022/04/03 04:08:53;;;;;;;20.85;11.85;;;;;;;12.34;71.03;99592.66;4971117;28;20065;-85
2022/04/03 04:11:19;;;;;;;19.10;11.90;;;;;;;12.36;71.07;99602.28;4983384;28;20034;-85
2022/04/03 04:13:44;;;;;;;23.85;11.57;;;;;;;12.30;71.41;99596.66;4977011;28;20459;-85
2022/04/03 04:16:10;;;;;;;21.02;14.68;;;;;;;12.23;70.65;99601.03;4961187;28;20114;-85
2022/04/03 04:18:37;;;;;;;22.75;13.75;;;;;;;12.29;70.53;99613.88;4978201;28;20038;-85
2022/04/03 04:21:04;;;;;;;21.90;15.30;;;;;;;12.25;71.40;99599.88;4978049;28;20030;-87
2022/04/03 04:23:30;;;;;;;26.83;15.85;;;;;;;12.21;71.27;99589.56;4960584;28;20037;-86
2022/04/03 04:25:56;;;;;;;23.55;16.42;;;;;;;12.26;71.50;99589.94;4980493;28;20034;-86
2022/04/03 04:28:21;;;;;;;26.85;15.65;;;;;;;12.22;70.74;99593.94;4984571;28;20400;-85
2022/04/03 04:30:47;;;;;;;29.92;17.58;;;;;;;12.17;70.35;99588.19;4967246;28;20027;-85
2022/04/03 04:33:12;;;;;;;25.40;17.63;;;;;;;11.83;70.48;99545.88;4982028;28;20038;-85
2022/04/03 04:35:38;;;;;;;29.80;17.73;;;;;;;12.02;70.71;99583.38;4962052;28;20054;-84
2022/04/03 04:38:04;;;;;;;31.75;18.13;;;;;;;11.65;70.93;99525.38;4976586;28;20046;-85
2022/04/03 04:40:29;;;;;;;31.10;19.08;;;;;;;11.76;71.61;99555.63;4976870;28;20038;-85
2022/04/03 04:42:58;;;;;;;33.05;18.15;;;;;;;11.80;71.28;99554.28;4960058;28;20046;-85
2022/04/03 04:45:25;;;;;;;24.95;16.42;;;;;;;12.06;71.90;99594.69;4979355;28;20055;-85
2022/04/03 04:47:51;;;;;;;26.50;17.70;;;;;;;11.84;71.47;99577.22;4984415;28;20034;-85
2022/04/03 04:50:18;;;;;;;32.00;16.13;;;;;;;12.02;70.86;99632.91;4980482;28;20382;-86
2022/04/03 04:52:44;;;;;;;23.52;15.88;;;;;;;11.85;70.38;99624.72;4975896;28;20031;-85
2022/04/03 04:55:10;;;;;;;21.77;15.60;;;;;;;11.79;70.65;99625.34;4984017;28;20085;-85
2022/04/03 04:57:37;;;;;;;21.75;15.15;;;;;;;11.92;70.82;99652.72;4982260;28;20427;-85
2022/04/03 05:00:08;;;;;;;21.20;15.70;;;;;;;11.57;71.29;99598.00;4975801;28;20027;-85
2022/04/03 05:02:33;;;;;;;32.35;18.67;;;;;;;11.76;72.02;99630.19;4975369;28;20026;-86
2022/04/03 05:05:00;;;;;;;29.10;15.65;;;;;;;11.59;71.33;99596.03;4958087;28;20022;-85
2022/04/03 05:07:26;;;;;;;21.38;13.88;;;;;;;11.92;70.71;99646.47;4975236;28;20500;-86
2022/04/03 05:09:52;;;;;;;20.05;12.45;;;;;;;11.65;71.13;99609.69;4958073;28;20461;-86
2022/04/03 05:12:18;;;;;;;18.27;12.45;;;;;;;11.80;70.34;99629.69;4978855;28;20038;-84
2022/04/03 05:14:43;;;;;;;23.90;11.82;;;;;;;11.53;70.49;99592.09;4975937;28;20099;-85
2022/04/03 05:17:09;;;;;;;13.93;8.05;;;;;;;11.75;70.40;99623.94;4976474;28;20414;-85
2022/04/03 05:19:36;;;;;;;12.82;7.35;;;;;;;11.98;69.42;99646.69;4958877;28;20477;-85
2022/04/03 05:22:02;;;;;;;9.20;4.57;;;;;;;11.65;66.64;99598.09;4977447;28;20027;-85
2022/04/03 05:24:28;;;;;;;10.85;4.40;;;;;;;11.99;66.60;99634.91;4976043;28;20090;-86
2022/04/03 05:26:53;;;;;;;21.42;5.70;;;;;;;12.07;65.96;99638.66;4976416;28;20473;-84
2022/04/03 05:29:19;;;;;;;10.02;4.40;;;;;;;11.98;64.56;99633.22;4978804;28;20022;-84
2022/04/03 05:31:44;;;;;;;14.85;5.13;;;;;;;12.10;64.06;99654.53;4968553;28;20067;-85
2022/04/03 05:34:10;;;;;;;6.43;4.00;;;;;;;11.78;63.67;99591.31;4985425;28;20031;-84
2022/04/03 05:36:36;;;;;;;6.90;4.65;;;;;;;12.21;63.70;99656.94;4985384;28;20029;-82
2022/04/03 05:39:04;;;;;;;8.82;3.60;;;;;;;11.92;63.59;99604.22;4975241;28;20480;-84
2022/04/03 05:41:30;;;;;;;106.35;11.10;;;;;;;12.29;63.78;99655.13;4975373;28;20050;-85
2022/04/03 05:43:56;;;;;;;22.70;4.35;;;;;;;12.38;63.66;99653.34;4975194;28;20046;-85
2022/04/03 05:46:22;;;;;;;9.02;3.97;;;;;;;12.30;62.79;99635.25;4975141;28;20113;-85
2022/04/03 05:48:47;;;;;;;8.90;3.55;;;;;;;12.34;63.47;99635.78;4974902;28;20023;-84
2022/04/03 05:51:14;;;;;;;17.60;5.28;;;;;;;12.47;63.04;99653.25;4974317;28;20050;-85
2022/04/03 05:53:41;;;;;;;6.90;3.35;;;;;;;12.36;61.91;99644.56;4974282;28;20081;-84
2022/04/03 05:56:09;;;;;;;25.10;4.88;;;;;;;12.38;62.15;99637.19;4974780;28;20026;-84
2022/04/03 05:58:35;;;;;;;10.45;4.22;;;;;;;12.55;63.17;99650.56;4975472;28;20499;-84
2022/04/03 06:01:00;;;;;;;11.95;5.32;;;;;;;12.50;62.32;99642.13;4976961;28;20034;-85
2022/04/03 06:03:26;;;;;;;24.92;5.63;;;;;;;12.64;62.93;99662.25;4986975;28;20107;-84
2022/04/03 06:05:52;;;;;;;14.07;6.25;;;;;;;12.56;62.44;99659.50;4984484;28;20043;-85
2022/04/03 06:08:18;;;;;;;14.63;5.00;;;;;;;12.63;62.23;99665.13;4978200;28;20022;-83
2022/04/03 06:10:44;;;;;;;12.93;4.82;;;;;;;12.66;61.52;99662.91;4979818;28;20049;-83
2022/04/03 06:13:12;;;;;;;13.25;4.22;;;;;;;12.68;60.63;99657.38;4990470;28;20031;-83
2022/04/03 06:15:41;;;;;;;6.20;3.60;;;;;;;12.60;59.81;99641.97;4986933;28;20031;-84
2022/04/03 06:18:12;;;;;;;16.52;3.58;;;;;;;12.77;58.48;99662.66;4989205;28;20027;-83
2022/04/03 06:20:38;;;;;;;7.78;3.45;;;;;;;12.39;57.77;99614.56;4979517;28;20093;-85
2022/04/03 06:23:10;;;;;;;9.18;3.58;;;;;;;12.74;57.41;99675.63;4980911;28;20042;-85
2022/04/03 06:25:36;;;;;;;;;;;;;;;12.68;57.61;99682.50;4978816;28;20496;-83
2022/04/03 06:28:02;;;;;;;6.10;2.40;;;;;;;12.40;56.76;99645.94;4975182;28;19910;-85
2022/04/03 06:30:27;;;;;;;11.43;3.40;;;;;;;12.62;55.69;99691.25;4975705;28;20027;-84
2022/04/03 06:32:52;;;;;;;10.20;3.08;;;;;;;12.49;55.60;99661.16;4974792;28;20022;-84
2022/04/03 06:35:18;;;;;;;62.22;6.35;;;;;;;12.60;55.19;99668.97;4957261;28;20428;-86
2022/04/03 06:37:43;;;;;;;10.13;3.17;;;;;;;12.80;56.33;99680.34;4977834;28;20058;-85
2022/04/03 06:40:09;;;;;;;10.32;3.00;;;;;;;12.22;54.48;99580.47;4974383;28;20055;-84
2022/04/03 06:42:35;;;;;;;10.27;3.63;;;;;;;12.74;54.56;99662.13;4973969;28;20594;-86
2022/04/03 06:45:01;;;;;;;9.32;3.30;;;;;;;12.83;54.14;99672.78;4953313;29;20146;-84
2022/04/03 06:47:27;;;;;;;5.47;2.53;;;;;;;12.95;54.24;99690.38;4953259;29;20035;-87
2022/04/03 06:49:53;;;;;;;11.25;2.95;;;;;;;12.52;53.96;99596.97;4955258;28;20474;-86
2022/04/03 06:52:18;;;;;;;7.10;3.08;;;;;;;12.60;53.60;99615.00;4958660;28;20023;-85
2022/04/03 06:54:44;;;;;;;6.70;2.78;;;;;;;12.92;52.84;99668.25;4959233;29;20027;-84
2022/04/03 06:57:14;;;;;;;10.63;3.28;;;;;;;13.02;52.64;99686.03;4969050;28;20030;-84
2022/04/03 06:59:40;;;;;;;11.50;4.05;;;;;;;12.73;52.57;99623.50;4969822;29;20413;-84
2022/04/03 07:02:05;;;;;;;14.77;3.95;;;;;;;12.88;51.96;99648.84;4970876;28;20039;-84
2022/04/03 07:04:31;;;;;;;12.35;6.20;;;;;;;13.22;51.75;99705.50;4962209;29;20109;-85
2022/04/03 07:06:56;;;;;;;12.50;2.25;;;;;;;13.07;50.81;99667.47;4958547;28;20030;-85
2022/04/03 07:09:22;;;;;;;5.60;2.95;;;;;;;13.20;50.29;99690.50;4958776;28;20023;-85
2022/04/03 07:11:48;;;;;;;8.45;2.88;;;;;;;12.90;47.97;99638.72;4958269;28;20035;-83
2022/04/03 07:14:13;;;;;;;13.02;3.35;;;;;;;13.09;48.00;99645.75;4958049;28;20027;-84
2022/04/03 07:16:39;;;;;;;5.30;2.65;;;;;;;13.43;46.95;99695.09;4957494;28;20027;-85
2022/04/03 07:19:05;;;;;;;10.88;2.20;;;;;;;13.57;47.04;99701.72;4958082;29;20031;-84
2022/04/03 07:21:30;;;;;;;5.10;1.80;;;;;;;13.43;45.31;99673.50;4957966;28;20015;-85
2022/04/03 07:23:56;;;;;;;21.25;2.85;;;;;;;13.68;46.79;99698.69;4959174;28;20031;-86
2022/04/03 07:26:22;;;;;;;7.68;2.78;;;;;;;13.70;45.95;99672.34;4958099;28;20035;-85
2022/04/03 07:28:47;;;;;;;6.75;2.25;;;;;;;13.81;45.23;99671.19;4957838;28;20034;-85
2022/04/03 07:31:13;;;;;;;8.68;2.38;;;;;;;13.65;44.80;99639.59;4957928;28;20462;-84
2022/04/03 07:33:38;;;;;;;6.10;2.20;;;;;;;13.78;43.77;99669.66;4957690;28;20031;-84
2022/04/03 07:36:04;;;;;;;8.20;2.75;;;;;;;14.00;44.69;99704.13;4959451;29;20102;-85
2022/04/03 07:38:30;;;;;;;3.85;1.90;;;;;;;14.13;44.82;99701.75;4962858;28;20417;-85
2022/04/03 07:40:55;;;;;;;5.45;1.90;;;;;;;14.17;44.71;99713.91;4965453;28;20031;-86
2022/04/03 07:43:22;;;;;;;7.72;3.13;;;;;;;14.25;44.74;99712.22;4963420;29;20038;-84
2022/04/03 07:45:49;;;;;;;7.40;2.08;;;;;;;14.18;44.32;99704.78;4974816;28;20042;-86
2022/04/03 07:48:16;;;;;;;15.07;2.40;;;;;;;14.26;45.20;99722.88;4975866;28;20025;-84
2022/04/03 07:50:42;;;;;;;11.45;3.25;;;;;;;14.21;45.04;99689.25;4976140;28;20023;-84
2022/04/03 07:53:07;;;;;;;8.25;2.05;;;;;;;14.32;45.19;99688.88;4976135;28;20070;-86
2022/04/03 07:55:33;;;;;;;9.23;2.30;;;;;;;14.30;44.43;99677.38;4975968;28;20102;-84
2022/04/03 07:57:58;;;;;;;7.45;2.08;;;;;;;14.60;44.78;99722.69;4976973;28;20172;-84
2022/04/03 08:00:24;;;;;;;4.25;1.85;;;;;;;14.45;44.91;99702.75;4976211;28;20132;-84
2022/04/03 08:02:49;;;;;;;7.43;2.22;;;;;;;14.21;45.17;99646.81;4958406;28;20050;-85
2022/04/03 08:05:15;;;;;;;7.90;2.20;;;;;;;14.64;45.21;99707.78;4976557;28;20037;-86
2022/04/03 08:07:46;;;;;;;8.32;2.28;;;;;;;14.74;45.43;99731.97;4976900;28;20035;-84
2022/04/03 08:10:15;;;;;;;5.03;2.03;;;;;;;14.76;46.05;99705.56;4976673;28;20034;-84
2022/04/03 08:12:42;;;;;;;4.05;1.70;;;;;;;14.85;46.12;99718.03;4977254;28;20030;-85
2022/04/03 08:15:10;;;;;;;9.40;2.20;;;;;;;14.69;46.54;99690.00;4982064;28;20027;-84
2022/04/03 08:17:39;;;;;;;2.55;2.05;;;;;;;14.70;46.71;99675.47;4977701;28;20031;-86
2022/04/03 08:20:13;;;;;;;6.03;2.33;;;;;;;15.06;46.11;99724.56;4976642;28;20399;-84
2022/04/03 08:22:42;;;;;;;8.23;2.25;;;;;;;14.81;46.26;99687.75;4977333;28;20034;-84
2022/04/03 08:25:08;;;;;;;7.38;1.95;;;;;;;15.14;46.51;99724.53;4983363;28;20030;-84
2022/04/03 08:27:50;;;;;;;7.45;2.25;;;;;;;15.27;45.54;99730.22;4986395;28;20082;-85
2022/04/03 08:30:29;;;;;;;4.32;1.77;;;;;;;15.35;44.95;99740.16;4961675;28;20023;-84
2022/04/03 08:32:55;;;;;;;11.60;2.22;;;;;;;15.47;44.51;99744.19;4975373;28;20081;-84
2022/04/03 08:35:24;;;;;;;3.92;2.08;;;;;;;15.39;44.50;99735.25;4975535;28;20125;-85
2022/04/03 08:37:50;;;;;;;8.13;1.77;;;;;;;15.56;44.92;99731.47;4974963;28;20046;-84
2022/04/03 08:40:17;;;;;;;16.02;2.47;;;;;;;15.38;45.04;99701.88;4974734;28;20559;-85
2022/04/03 08:42:43;;;;;;;7.88;1.98;;;;;;;15.52;44.64;99714.72;4975348;28;20082;-85
2022/04/03 08:45:12;;;;;;;8.13;2.00;;;;;;;15.63;44.04;99721.56;4974639;28;20369;-84
2022/04/03 08:47:43;;;;;;;5.47;2.00;;;;;;;15.68;43.57;99719.19;4975026;28;20030;-85
2022/04/03 08:50:10;;;;;;;3.70;1.75;;;;;;;15.83;43.34;99714.69;4974860;28;20026;-83
2022/04/03 08:52:37;;;;;;;6.35;1.65;;;;;;;15.97;43.45;99735.56;4974854;28;20026;-83
2022/04/03 08:55:04;;;;;;;9.35;2.00;;;;;;;16.04;43.66;99736.56;4957326;28;20033;-85
2022/04/03 08:57:30;;;;;;;9.18;1.98;;;;;;;16.14;43.25;99742.59;4957148;28;20014;-85
2022/04/03 08:59:56;;;;;;;11.75;1.67;;;;;;;16.33;43.61;99742.06;4975381;28;20440;-85
2022/04/03 09:02:21;;;;;;;6.85;2.10;;;;;;;16.54;43.35;99733.28;4974669;28;20027;-84
2022/04/03 09:04:47;;;;;;;2.55;1.60;;;;;;;16.73;43.11;99731.84;4975336;28;20094;-84
2022/04/03 09:07:18;;;;;;;4.85;1.60;;;;;;;17.03;42.35;99760.72;4957808;28;20038;-84
2022/04/03 09:09:44;;;;;;;11.27;1.85;;;;;;;17.12;42.50;99748.75;4979518;28;20033;-84
2022/04/03 09:12:11;;;;;;;5.57;1.65;;;;;;;17.30;42.63;99740.19;4975388;28;20405;-84
2022/04/03 09:14:45;;;;;;;13.07;1.98;;;;;;;17.28;41.53;99726.78;4956677;28;20512;-84
2022/04/03 09:17:10;;;;;;;4.00;2.58;;;;;;;17.11;41.71;99725.31;4957882;28;20027;-85
2022/04/03 09:19:35;;;;;;;12.43;4.25;;;;;;;17.32;41.83;99759.88;4986875;28;20042;-83
2022/04/03 09:22:01;;;;;;;9.30;2.00;;;;;;;17.23;40.50;99747.41;4982191;28;20023;-84
2022/04/03 09:24:28;;;;;;;6.00;2.22;;;;;;;17.28;40.61;99753.13;4958005;28;20538;-84
2022/04/03 09:26:58;;;;;;;8.73;1.88;;;;;;;17.21;41.47;99742.19;4975786;28;20057;-84
2022/04/03 09:29:24;;;;;;;11.18;2.45;;;;;;;17.32;41.41;99771.59;4961651;28;20025;-84
2022/04/03 09:31:58;;;;;;;4.18;2.10;;;;;;;17.27;41.91;99765.03;4974876;28;20057;-85
2022/04/03 09:34:26;;;;;;;5.88;2.28;;;;;;;17.30;41.83;99753.78;4974104;28;20031;-85
2022/04/03 09:36:59;;;;;;;6.20;1.95;;;;;;;17.30;41.33;99762.78;4974120;28;20078;-84
2022/04/03 09:39:30;;;;;;;3.92;2.17;;;;;;;17.29;40.97;99766.53;4973803;28;20026;-85
2022/04/03 09:41:58;;;;;;;6.97;1.67;;;;;;;17.21;40.71;99769.38;4974506;28;20034;-86
2022/04/03 09:44:41;;;;;;;7.25;1.80;;;;;;;16.76;41.57;99699.75;4974933;28;20111;-85
2022/04/03 09:47:15;;;;;;;4.80;1.58;;;;;;;17.00;41.41;99758.38;4975612;28;20030;-83
2022/04/03 09:49:42;;;;;;;8.43;2.03;;;;;;;16.78;42.00;99741.16;4983310;28;20022;-83
2022/04/03 09:52:09;;;;;;;7.75;2.65;;;;;;;16.93;42.06;99781.06;4966853;28;20018;-86
2022/04/03 09:54:38;;;;;;;5.07;2.22;;;;;;;16.81;41.26;99761.66;4986127;28;20097;-84
2022/04/03 09:57:25;;;;;;;6.53;2.40;;;;;;;16.76;41.09;99796.66;4974738;28;20511;-86
2022/04/03 09:59:55;;;;;;;4.45;1.95;;;;;;;16.61;41.28;99780.34;4975908;28;20023;-85
2022/04/03 10:02:22;;;;;;;9.18;2.10;;;;;;;16.47;41.55;99764.84;4975281;28;20539;-84
2022/04/03 10:04:48;;;;;;;3.13;1.80;;;;;;;16.30;41.35;99764.13;4957021;28;20027;-84
2022/04/03 10:07:15;;;;;;;7.93;2.10;;;;;;;16.54;40.93;99781.25;4973686;28;20031;-84
2022/04/03 10:09:49;;;;;;;5.03;1.70;;;;;;;16.59;40.82;99787.00;4973883;28;20058;-86
2022/04/03 10:12:18;;;;;;;11.95;2.10;;;;;;;16.47;40.84;99791.13;4973482;28;20030;-85
2022/04/03 10:14:49;;;;;;;3.35;1.98;;;;;;;16.53;40.14;99791.25;4973984;28;20042;-85
2022/04/03 10:17:16;;;;;;;5.22;2.63;;;;;;;16.53;40.06;99806.69;4976965;28;20026;-83
2022/04/03 10:19:42;;;;;;;3.25;1.50;;;;;;;16.45;39.13;99801.34;4979274;28;20042;-84
2022/04/03 10:22:33;;;;;;;5.95;2.13;;;;;;;16.49;40.00;99810.78;4974152;28;20018;-84
2022/04/03 10:25:02;;;;;;;7.72;1.95;;;;;;;16.40;39.02;99801.03;4949460;28;20037;-84
2022/04/03 10:27:32;;;;;;;8.70;2.60;;;;;;;16.23;38.62;99801.19;4975089;28;20031;-84
2022/04/03 10:29:59;;;;;;;3.35;2.05;;;;;;;16.35;38.55;99812.44;4973434;28;20125;-86
2022/04/03 10:32:33;;;;;;;7.40;2.28;;;;;;;16.29;37.97;99810.47;4973512;28;20418;-84
2022/04/03 10:35:10;;;;;;;8.70;2.88;;;;;;;16.22;38.36;99794.06;4973112;28;20023;-84
2022/04/03 10:37:41;;;;;;;3.58;1.75;;;;;;;16.45;38.07;99814.91;4973435;28;20030;-83
2022/04/03 10:40:11;;;;;;;6.22;2.05;;;;;;;16.35;38.75;99804.31;4973538;28;20089;-85
2022/04/03 10:42:51;;;;;;;4.22;2.03;;;;;;;16.51;39.15;99827.75;4973384;28;20027;-84
2022/04/03 10:45:27;;;;;;;5.75;2.47;;;;;;;16.40;38.53;99814.59;4956867;28;20078;-84
2022/04/03 10:48:23;;;;;;;5.32;2.45;;;;;;;16.38;38.52;99832.94;4974734;28;20019;-85
2022/04/03 10:51:23;;;;;;;5.57;2.38;;;;;;;16.42;38.31;99810.66;4973161;28;20050;-84
2022/04/03 10:53:54;;;;;;;8.30;2.30;;;;;;;16.61;38.35;99841.94;4955990;28;20062;-86
2022/04/03 10:56:27;;;;;;;5.95;2.40;;;;;;;16.75;37.97;99827.56;4980635;28;20083;-83
2022/04/03 10:58:57;;;;;;;5.28;2.30;;;;;;;16.71;37.56;99842.53;4980037;28;20447;-84
2022/04/03 11:01:31;;;;;;;4.65;1.60;;;;;;;16.68;37.08;99843.75;4973517;28;20150;-85
2022/04/03 11:04:13;;;;;;;6.53;1.80;;;;;;;16.65;37.15;99846.00;4973407;28;20023;-85
2022/04/03 11:06:40;;;;;;;8.40;3.13;;;;;;;16.66;37.21;99834.09;4973363;28;20022;-84
2022/04/03 11:09:11;;;;;;;1.85;1.60;;;;;;;16.38;37.41;99782.22;4973980;28;20050;-84
2022/04/03 11:11:49;;;;;;;10.13;2.22;;;;;;;16.68;37.28;99841.03;4973495;28;20031;-85
2022/04/03 11:14:52;;;;;;;8.02;2.55;;;;;;;16.86;36.95;99840.69;4959446;28;20019;-84
2022/04/03 11:17:18;;;;;;;4.70;2.13;;;;;;;17.11;37.19;99834.00;4985282;28;20019;-83
2022/04/03 11:19:45;;;;;;;6.03;2.30;;;;;;;17.23;36.19;99816.19;4984709;28;20026;-83
2022/04/03 11:22:17;;;;;;;8.77;1.83;;;;;;;17.10;35.46;99783.41;4981069;28;20097;-85
2022/04/03 11:24:43;;;;;;;11.33;2.00;;;;;;;17.27;35.02;99820.25;4973354;28;20026;-85
2022/04/03 11:27:09;;;;;;;4.97;1.42;;;;;;;17.23;34.31;99827.06;4973539;28;20031;-83
2022/04/03 11:29:35;;;;;;;4.07;1.50;;;;;;;17.24;33.44;99838.78;4973802;28;20085;-84